sensor_id;sensor_type;location;lat;lon;timestamp;P1;durP1;ratioP1;P2;durP2;ratioP2
14400;SDS011;7285;50.894;5.462;2023-07-22T00:00:03;0.83;;;0.83;;
14400;SDS011;7285;50.894;5.462;2023-07-22T00:02:34;1.10;;;1.10;;
14400;SDS011;7285;50.894;5.462;2023-07-22T00:05:02;0.80;;;0.80;;
14400;SDS011;7285;50.894;5.462;2023-07-22T00:07:30;0.80;;;0.80;;
14400;SDS011;7285;50.894;5.462;2023-07-22T00:09:57;0.87;;;0.87;;
14400;SDS011;7285;50.894;5.462;2023-07-22T00:12:25;1.20;;;1.20;;
14400;SDS011;7285;50.894;5.462;2023-07-22T00:14:52;0.90;;;0.90;;
14400;SDS011;7285;50.894;5.462;2023-07-22T00:17:19;0.60;;;0.60;;
14400;SDS011;7285;50.894;5.462;2023-07-22T00:19:47;0.70;;;0.70;;
14400;SDS011;7285;50.894;5.462;2023-07-22T00:22:15;0.67;;;0.67;;
14400;SDS011;7285;50.894;5.462;2023-07-22T00:24:42;1.00;;;1.00;;
14400;SDS011;7285;50.894;5.462;2023-07-22T00:27:09;0.80;;;0.80;;
14400;SDS011;7285;50.894;5.462;2023-07-22T00:29:36;1.07;;;0.97;;
14400;SDS011;7285;50.894;5.462;2023-07-22T00:32:04;0.90;;;0.90;;
14400;SDS011;7285;50.894;5.462;2023-07-22T00:34:33;1.30;;;1.30;;
14400;SDS011;7285;50.894;5.462;2023-07-22T00:37:00;0.90;;;0.90;;
14400;SDS011;7285;50.894;5.462;2023-07-22T00:39:29;0.93;;;0.93;;
14400;SDS011;7285;50.894;5.462;2023-07-22T00:41:56;0.73;;;0.73;;
14400;SDS011;7285;50.894;5.462;2023-07-22T00:44:23;0.70;;;0.70;;
14400;SDS011;7285;50.894;5.462;2023-07-22T00:46:50;0.60;;;0.60;;
14400;SDS011;7285;50.894;5.462;2023-07-22T00:49:20;0.60;;;0.60;;
14400;SDS011;7285;50.894;5.462;2023-07-22T00:51:47;0.80;;;0.80;;
14400;SDS011;7285;50.894;5.462;2023-07-22T00:54:14;1.07;;;1.07;;
14400;SDS011;7285;50.894;5.462;2023-07-22T00:56:43;0.77;;;0.77;;
14400;SDS011;7285;50.894;5.462;2023-07-22T00:59:10;1.00;;;1.00;;
14400;SDS011;7285;50.894;5.462;2023-07-22T01:01:38;1.17;;;1.17;;
14400;SDS011;7285;50.894;5.462;2023-07-22T01:04:06;0.90;;;0.90;;
14400;SDS011;7285;50.894;5.462;2023-07-22T01:06:34;0.90;;;0.90;;
14400;SDS011;7285;50.894;5.462;2023-07-22T01:09:01;1.20;;;0.83;;
14400;SDS011;7285;50.894;5.462;2023-07-22T01:11:29;0.87;;;0.87;;
14400;SDS011;7285;50.894;5.462;2023-07-22T01:13:58;0.70;;;0.70;;
14400;SDS011;7285;50.894;5.462;2023-07-22T01:16:25;1.00;;;1.00;;
14400;SDS011;7285;50.894;5.462;2023-07-22T01:18:53;1.10;;;1.10;;
14400;SDS011;7285;50.894;5.462;2023-07-22T01:21:20;1.10;;;1.10;;
14400;SDS011;7285;50.894;5.462;2023-07-22T01:23:51;0.90;;;0.90;;
14400;SDS011;7285;50.894;5.462;2023-07-22T01:26:19;0.80;;;0.80;;
14400;SDS011;7285;50.894;5.462;2023-07-22T01:28:46;0.87;;;0.87;;
14400;SDS011;7285;50.894;5.462;2023-07-22T01:31:13;0.80;;;0.80;;
14400;SDS011;7285;50.894;5.462;2023-07-22T01:33:40;1.47;;;1.47;;
14400;SDS011;7285;50.894;5.462;2023-07-22T01:36:07;0.60;;;0.60;;
14400;SDS011;7285;50.894;5.462;2023-07-22T01:38:34;1.93;;;1.60;;
14400;SDS011;7285;50.894;5.462;2023-07-22T01:41:03;1.77;;;1.63;;
14400;SDS011;7285;50.894;5.462;2023-07-22T01:43:30;1.17;;;1.17;;
14400;SDS011;7285;50.894;5.462;2023-07-22T01:45:57;0.77;;;0.77;;
14400;SDS011;7285;50.894;5.462;2023-07-22T01:48:23;0.70;;;0.70;;
14400;SDS011;7285;50.894;5.462;2023-07-22T01:50:50;0.90;;;0.90;;
14400;SDS011;7285;50.894;5.462;2023-07-22T01:53:17;0.80;;;0.80;;
14400;SDS011;7285;50.894;5.462;2023-07-22T01:55:46;1.00;;;1.00;;
14400;SDS011;7285;50.894;5.462;2023-07-22T01:58:15;1.10;;;1.10;;
14400;SDS011;7285;50.894;5.462;2023-07-22T02:00:41;0.80;;;0.80;;
14400;SDS011;7285;50.894;5.462;2023-07-22T02:03:08;1.07;;;1.07;;
14400;SDS011;7285;50.894;5.462;2023-07-22T02:05:35;0.80;;;0.80;;
14400;SDS011;7285;50.894;5.462;2023-07-22T02:08:03;1.00;;;1.00;;
14400;SDS011;7285;50.894;5.462;2023-07-22T02:10:30;0.80;;;0.80;;
14400;SDS011;7285;50.894;5.462;2023-07-22T02:12:57;0.87;;;0.87;;
14400;SDS011;7285;50.894;5.462;2023-07-22T02:15:25;0.70;;;0.70;;
14400;SDS011;7285;50.894;5.462;2023-07-22T02:17:52;1.57;;;1.47;;
14400;SDS011;7285;50.894;5.462;2023-07-22T02:20:20;0.97;;;0.90;;
14400;SDS011;7285;50.894;5.462;2023-07-22T02:22:47;0.83;;;0.83;;
14400;SDS011;7285;50.894;5.462;2023-07-22T02:25:14;0.80;;;0.80;;
14400;SDS011;7285;50.894;5.462;2023-07-22T02:27:41;1.07;;;1.00;;
14400;SDS011;7285;50.894;5.462;2023-07-22T02:30:09;1.00;;;1.00;;
14400;SDS011;7285;50.894;5.462;2023-07-22T02:32:38;1.10;;;1.10;;
14400;SDS011;7285;50.894;5.462;2023-07-22T02:35:06;0.90;;;0.90;;
14400;SDS011;7285;50.894;5.462;2023-07-22T02:37:34;1.43;;;0.93;;
14400;SDS011;7285;50.894;5.462;2023-07-22T02:40:03;0.87;;;0.87;;
14400;SDS011;7285;50.894;5.462;2023-07-22T02:42:33;0.90;;;0.90;;
14400;SDS011;7285;50.894;5.462;2023-07-22T02:45:01;0.93;;;0.93;;
14400;SDS011;7285;50.894;5.462;2023-07-22T02:47:28;0.70;;;0.70;;
14400;SDS011;7285;50.894;5.462;2023-07-22T02:49:56;0.60;;;0.60;;
14400;SDS011;7285;50.894;5.462;2023-07-22T02:52:23;1.40;;;1.40;;
14400;SDS011;7285;50.894;5.462;2023-07-22T02:55:07;0.80;;;0.80;;
14400;SDS011;7285;50.894;5.462;2023-07-22T02:57:36;0.70;;;0.70;;
14400;SDS011;7285;50.894;5.462;2023-07-22T03:00:03;0.73;;;0.73;;
14400;SDS011;7285;50.894;5.462;2023-07-22T03:02:33;0.90;;;0.90;;
14400;SDS011;7285;50.894;5.462;2023-07-22T03:05:02;1.53;;;1.13;;
14400;SDS011;7285;50.894;5.462;2023-07-22T03:07:33;0.70;;;0.70;;
14400;SDS011;7285;50.894;5.462;2023-07-22T03:10:00;1.17;;;1.17;;
14400;SDS011;7285;50.894;5.462;2023-07-22T03:12:27;0.83;;;0.83;;
14400;SDS011;7285;50.894;5.462;2023-07-22T03:14:54;0.60;;;0.60;;
14400;SDS011;7285;50.894;5.462;2023-07-22T03:17:22;0.80;;;0.80;;
14400;SDS011;7285;50.894;5.462;2023-07-22T03:19:49;1.00;;;1.00;;
14400;SDS011;7285;50.894;5.462;2023-07-22T03:22:17;0.77;;;0.77;;
14400;SDS011;7285;50.894;5.462;2023-07-22T03:24:45;0.70;;;0.70;;
14400;SDS011;7285;50.894;5.462;2023-07-22T03:27:12;0.83;;;0.83;;
14400;SDS011;7285;50.894;5.462;2023-07-22T03:29:42;1.80;;;1.70;;
14400;SDS011;7285;50.894;5.462;2023-07-22T03:32:09;1.27;;;1.27;;
14400;SDS011;7285;50.894;5.462;2023-07-22T03:34:36;1.53;;;1.43;;
14400;SDS011;7285;50.894;5.462;2023-07-22T03:37:03;0.90;;;0.90;;
14400;SDS011;7285;50.894;5.462;2023-07-22T03:39:32;1.37;;;1.37;;
14400;SDS011;7285;50.894;5.462;2023-07-22T03:41:59;0.80;;;0.80;;
14400;SDS011;7285;50.894;5.462;2023-07-22T03:44:26;0.80;;;0.80;;
14400;SDS011;7285;50.894;5.462;2023-07-22T03:46:53;1.10;;;1.10;;
14400;SDS011;7285;50.894;5.462;2023-07-22T03:49:20;0.87;;;0.87;;
14400;SDS011;7285;50.894;5.462;2023-07-22T03:51:47;1.10;;;1.10;;
14400;SDS011;7285;50.894;5.462;2023-07-22T03:54:14;1.60;;;1.53;;
14400;SDS011;7285;50.894;5.462;2023-07-22T03:56:42;0.97;;;0.97;;
14400;SDS011;7285;50.894;5.462;2023-07-22T03:59:09;0.80;;;0.80;;
14400;SDS011;7285;50.894;5.462;2023-07-22T04:01:36;0.80;;;0.80;;
14400;SDS011;7285;50.894;5.462;2023-07-22T04:04:04;1.40;;;1.40;;
14400;SDS011;7285;50.894;5.462;2023-07-22T04:06:30;1.00;;;1.00;;
14400;SDS011;7285;50.894;5.462;2023-07-22T04:08:57;0.70;;;0.70;;
14400;SDS011;7285;50.894;5.462;2023-07-22T04:11:26;1.13;;;1.13;;
14400;SDS011;7285;50.894;5.462;2023-07-22T04:13:54;0.80;;;0.80;;
14400;SDS011;7285;50.894;5.462;2023-07-22T04:16:21;0.80;;;0.80;;
14400;SDS011;7285;50.894;5.462;2023-07-22T04:18:48;1.20;;;1.20;;
14400;SDS011;7285;50.894;5.462;2023-07-22T04:21:16;1.03;;;1.03;;
14400;SDS011;7285;50.894;5.462;2023-07-22T04:23:43;1.47;;;1.47;;
14400;SDS011;7285;50.894;5.462;2023-07-22T04:26:10;1.67;;;1.57;;
14400;SDS011;7285;50.894;5.462;2023-07-22T04:28:37;1.40;;;1.30;;
14400;SDS011;7285;50.894;5.462;2023-07-22T04:31:05;0.80;;;0.80;;
14400;SDS011;7285;50.894;5.462;2023-07-22T04:33:34;1.30;;;1.30;;
14400;SDS011;7285;50.894;5.462;2023-07-22T04:36:01;1.57;;;1.47;;
14400;SDS011;7285;50.894;5.462;2023-07-22T04:38:28;0.90;;;0.90;;
14400;SDS011;7285;50.894;5.462;2023-07-22T04:40:55;1.13;;;1.13;;
14400;SDS011;7285;50.894;5.462;2023-07-22T04:43:21;1.20;;;1.20;;
14400;SDS011;7285;50.894;5.462;2023-07-22T04:45:49;1.00;;;1.00;;
14400;SDS011;7285;50.894;5.462;2023-07-22T04:48:19;0.87;;;0.87;;
14400;SDS011;7285;50.894;5.462;2023-07-22T04:50:47;0.83;;;0.83;;
14400;SDS011;7285;50.894;5.462;2023-07-22T04:53:14;1.57;;;1.53;;
14400;SDS011;7285;50.894;5.462;2023-07-22T04:55:42;1.13;;;1.13;;
14400;SDS011;7285;50.894;5.462;2023-07-22T04:58:09;0.90;;;0.90;;
14400;SDS011;7285;50.894;5.462;2023-07-22T05:00:36;1.67;;;1.57;;
14400;SDS011;7285;50.894;5.462;2023-07-22T05:03:03;1.83;;;1.73;;
14400;SDS011;7285;50.894;5.462;2023-07-22T05:05:32;1.83;;;1.73;;
14400;SDS011;7285;50.894;5.462;2023-07-22T05:08:00;0.90;;;0.90;;
14400;SDS011;7285;50.894;5.462;2023-07-22T05:10:27;1.07;;;1.07;;
14400;SDS011;7285;50.894;5.462;2023-07-22T05:12:55;1.77;;;1.67;;
14400;SDS011;7285;50.894;5.462;2023-07-22T05:15:23;0.93;;;0.93;;
14400;SDS011;7285;50.894;5.462;2023-07-22T05:17:50;0.80;;;0.80;;
14400;SDS011;7285;50.894;5.462;2023-07-22T05:20:17;0.90;;;0.90;;
14400;SDS011;7285;50.894;5.462;2023-07-22T05:22:46;1.07;;;1.07;;
14400;SDS011;7285;50.894;5.462;2023-07-22T05:25:13;1.37;;;1.33;;
14400;SDS011;7285;50.894;5.462;2023-07-22T05:27:40;0.90;;;0.90;;
14400;SDS011;7285;50.894;5.462;2023-07-22T05:30:08;1.10;;;1.10;;
14400;SDS011;7285;50.894;5.462;2023-07-22T05:32:35;1.53;;;1.43;;
14400;SDS011;7285;50.894;5.462;2023-07-22T05:35:02;0.97;;;0.97;;
14400;SDS011;7285;50.894;5.462;2023-07-22T05:37:30;0.60;;;0.60;;
14400;SDS011;7285;50.894;5.462;2023-07-22T05:39:59;1.13;;;1.03;;
14400;SDS011;7285;50.894;5.462;2023-07-22T05:42:26;1.13;;;1.10;;
14400;SDS011;7285;50.894;5.462;2023-07-22T05:44:54;0.80;;;0.80;;
14400;SDS011;7285;50.894;5.462;2023-07-22T05:47:21;1.10;;;1.10;;
14400;SDS011;7285;50.894;5.462;2023-07-22T05:49:49;1.33;;;1.27;;
14400;SDS011;7285;50.894;5.462;2023-07-22T05:52:16;1.27;;;1.27;;
14400;SDS011;7285;50.894;5.462;2023-07-22T05:54:43;4.33;;;2.20;;
14400;SDS011;7285;50.894;5.462;2023-07-22T05:57:12;2.23;;;2.03;;
14400;SDS011;7285;50.894;5.462;2023-07-22T05:59:38;1.23;;;1.23;;
14400;SDS011;7285;50.894;5.462;2023-07-22T06:02:07;0.87;;;0.87;;
14400;SDS011;7285;50.894;5.462;2023-07-22T06:04:35;1.60;;;1.27;;
14400;SDS011;7285;50.894;5.462;2023-07-22T06:07:03;1.43;;;1.30;;
14400;SDS011;7285;50.894;5.462;2023-07-22T06:09:30;2.47;;;1.83;;
14400;SDS011;7285;50.894;5.462;2023-07-22T06:11:57;1.20;;;1.20;;
14400;SDS011;7285;50.894;5.462;2023-07-22T06:14:26;1.67;;;1.57;;
14400;SDS011;7285;50.894;5.462;2023-07-22T06:16:53;2.50;;;2.33;;
14400;SDS011;7285;50.894;5.462;2023-07-22T06:19:20;2.23;;;1.50;;
14400;SDS011;7285;50.894;5.462;2023-07-22T06:21:48;0.93;;;0.93;;
14400;SDS011;7285;50.894;5.462;2023-07-22T06:24:15;1.60;;;1.57;;
14400;SDS011;7285;50.894;5.462;2023-07-22T06:26:42;3.53;;;2.30;;
14400;SDS011;7285;50.894;5.462;2023-07-22T06:29:09;1.90;;;1.80;;
14400;SDS011;7285;50.894;5.462;2023-07-22T06:31:38;1.37;;;0.90;;
14400;SDS011;7285;50.894;5.462;2023-07-22T06:34:05;1.83;;;1.73;;
14400;SDS011;7285;50.894;5.462;2023-07-22T06:36:32;1.60;;;1.50;;
14400;SDS011;7285;50.894;5.462;2023-07-22T06:38:59;2.60;;;2.40;;
14400;SDS011;7285;50.894;5.462;2023-07-22T06:41:26;1.50;;;1.40;;
14400;SDS011;7285;50.894;5.462;2023-07-22T06:43:53;1.23;;;1.13;;
14400;SDS011;7285;50.894;5.462;2023-07-22T06:46:20;2.03;;;1.93;;
14400;SDS011;7285;50.894;5.462;2023-07-22T06:48:48;1.17;;;1.00;;
14400;SDS011;7285;50.894;5.462;2023-07-22T06:51:15;2.17;;;0.90;;
14400;SDS011;7285;50.894;5.462;2023-07-22T06:53:42;0.97;;;0.90;;
14400;SDS011;7285;50.894;5.462;2023-07-22T06:56:09;3.30;;;2.17;;
14400;SDS011;7285;50.894;5.462;2023-07-22T06:58:36;1.00;;;1.00;;
14400;SDS011;7285;50.894;5.462;2023-07-22T07:01:03;2.10;;;1.53;;
14400;SDS011;7285;50.894;5.462;2023-07-22T07:03:30;2.77;;;1.80;;
14400;SDS011;7285;50.894;5.462;2023-07-22T07:05:59;1.70;;;1.60;;
14400;SDS011;7285;50.894;5.462;2023-07-22T07:08:26;2.47;;;2.27;;
14400;SDS011;7285;50.894;5.462;2023-07-22T07:10:53;2.03;;;0.70;;
14400;SDS011;7285;50.894;5.462;2023-07-22T07:13:20;1.37;;;1.27;;
14400;SDS011;7285;50.894;5.462;2023-07-22T07:15:47;6.33;;;1.07;;
14400;SDS011;7285;50.894;5.462;2023-07-22T07:18:15;1.30;;;1.20;;
14400;SDS011;7285;50.894;5.462;2023-07-22T07:20:43;1.43;;;1.33;;
14400;SDS011;7285;50.894;5.462;2023-07-22T07:23:12;1.73;;;1.20;;
14400;SDS011;7285;50.894;5.462;2023-07-22T07:25:41;0.97;;;0.97;;
14400;SDS011;7285;50.894;5.462;2023-07-22T07:28:08;0.93;;;0.90;;
14400;SDS011;7285;50.894;5.462;2023-07-22T07:30:36;0.90;;;0.90;;
14400;SDS011;7285;50.894;5.462;2023-07-22T07:33:03;1.47;;;1.37;;
14400;SDS011;7285;50.894;5.462;2023-07-22T07:35:30;4.43;;;1.57;;
14400;SDS011;7285;50.894;5.462;2023-07-22T07:37:57;1.00;;;0.77;;
14400;SDS011;7285;50.894;5.462;2023-07-22T07:40:25;1.73;;;1.63;;
14400;SDS011;7285;50.894;5.462;2023-07-22T07:42:52;2.43;;;1.53;;
14400;SDS011;7285;50.894;5.462;2023-07-22T07:45:20;11.60;;;1.20;;
14400;SDS011;7285;50.894;5.462;2023-07-22T07:47:47;1.23;;;0.97;;
14400;SDS011;7285;50.894;5.462;2023-07-22T07:50:14;1.10;;;0.77;;
14400;SDS011;7285;50.894;5.462;2023-07-22T07:52:41;1.33;;;1.23;;
14400;SDS011;7285;50.894;5.462;2023-07-22T07:55:08;0.63;;;0.63;;
14400;SDS011;7285;50.894;5.462;2023-07-22T07:57:36;1.03;;;1.03;;
14400;SDS011;7285;50.894;5.462;2023-07-22T08:00:04;1.33;;;1.20;;
14400;SDS011;7285;50.894;5.462;2023-07-22T08:02:33;1.23;;;1.10;;
14400;SDS011;7285;50.894;5.462;2023-07-22T08:05:00;0.90;;;0.80;;
14400;SDS011;7285;50.894;5.462;2023-07-22T08:07:27;0.93;;;0.80;;
14400;SDS011;7285;50.894;5.462;2023-07-22T08:09:55;0.83;;;0.83;;
14400;SDS011;7285;50.894;5.462;2023-07-22T08:12:23;1.13;;;1.03;;
14400;SDS011;7285;50.894;5.462;2023-07-22T08:14:53;0.80;;;0.80;;
14400;SDS011;7285;50.894;5.462;2023-07-22T08:17:20;0.90;;;0.90;;
14400;SDS011;7285;50.894;5.462;2023-07-22T08:19:47;1.63;;;1.53;;
14400;SDS011;7285;50.894;5.462;2023-07-22T08:22:14;1.17;;;0.60;;
14400;SDS011;7285;50.894;5.462;2023-07-22T08:24:41;0.70;;;0.70;;
14400;SDS011;7285;50.894;5.462;2023-07-22T08:27:08;1.43;;;0.90;;
14400;SDS011;7285;50.894;5.462;2023-07-22T08:29:35;1.63;;;1.53;;
14400;SDS011;7285;50.894;5.462;2023-07-22T08:32:04;1.13;;;1.03;;
14400;SDS011;7285;50.894;5.462;2023-07-22T08:34:31;1.03;;;1.03;;
14400;SDS011;7285;50.894;5.462;2023-07-22T08:36:58;1.10;;;0.70;;
14400;SDS011;7285;50.894;5.462;2023-07-22T08:39:25;0.53;;;0.53;;
14400;SDS011;7285;50.894;5.462;2023-07-22T08:41:52;1.53;;;1.00;;
14400;SDS011;7285;50.894;5.462;2023-07-22T08:44:20;2.73;;;1.17;;
14400;SDS011;7285;50.894;5.462;2023-07-22T08:46:47;0.50;;;0.50;;
14400;SDS011;7285;50.894;5.462;2023-07-22T08:49:17;0.93;;;0.47;;
14400;SDS011;7285;50.894;5.462;2023-07-22T08:51:45;2.20;;;1.10;;
14400;SDS011;7285;50.894;5.462;2023-07-22T08:54:13;0.70;;;0.70;;
14400;SDS011;7285;50.894;5.462;2023-07-22T08:56:40;1.07;;;0.70;;
14400;SDS011;7285;50.894;5.462;2023-07-22T08:59:08;2.53;;;0.63;;
14400;SDS011;7285;50.894;5.462;2023-07-22T09:01:35;1.07;;;1.00;;
14400;SDS011;7285;50.894;5.462;2023-07-22T09:04:04;0.50;;;0.50;;
14400;SDS011;7285;50.894;5.462;2023-07-22T09:06:32;0.90;;;0.80;;
14400;SDS011;7285;50.894;5.462;2023-07-22T09:09:01;0.83;;;0.80;;
14400;SDS011;7285;50.894;5.462;2023-07-22T09:11:32;8.00;;;0.83;;
14400;SDS011;7285;50.894;5.462;2023-07-22T09:14:00;0.50;;;0.50;;
14400;SDS011;7285;50.894;5.462;2023-07-22T09:16:29;0.67;;;0.67;;
14400;SDS011;7285;50.894;5.462;2023-07-22T09:18:57;0.67;;;0.67;;
14400;SDS011;7285;50.894;5.462;2023-07-22T09:21:24;0.50;;;0.50;;
14400;SDS011;7285;50.894;5.462;2023-07-22T09:23:54;0.60;;;0.60;;
14400;SDS011;7285;50.894;5.462;2023-07-22T09:26:21;0.77;;;0.77;;
14400;SDS011;7285;50.894;5.462;2023-07-22T09:28:51;1.93;;;0.70;;
14400;SDS011;7285;50.894;5.462;2023-07-22T09:31:20;0.30;;;0.30;;
14400;SDS011;7285;50.894;5.462;2023-07-22T09:33:48;0.40;;;0.40;;
14400;SDS011;7285;50.894;5.462;2023-07-22T09:36:15;0.63;;;0.63;;
14400;SDS011;7285;50.894;5.462;2023-07-22T09:38:43;0.30;;;0.30;;
14400;SDS011;7285;50.894;5.462;2023-07-22T09:41:11;0.43;;;0.43;;
14400;SDS011;7285;50.894;5.462;2023-07-22T09:43:38;0.50;;;0.50;;
14400;SDS011;7285;50.894;5.462;2023-07-22T09:46:06;0.50;;;0.50;;
14400;SDS011;7285;50.894;5.462;2023-07-22T09:48:40;0.50;;;0.50;;
14400;SDS011;7285;50.894;5.462;2023-07-22T09:51:11;0.57;;;0.57;;
14400;SDS011;7285;50.894;5.462;2023-07-22T09:53:43;1.03;;;0.40;;
14400;SDS011;7285;50.894;5.462;2023-07-22T09:56:12;0.40;;;0.40;;
14400;SDS011;7285;50.894;5.462;2023-07-22T09:58:39;0.30;;;0.30;;
14400;SDS011;7285;50.894;5.462;2023-07-22T10:01:07;0.50;;;0.50;;
14400;SDS011;7285;50.894;5.462;2023-07-22T10:03:37;0.50;;;0.50;;
14400;SDS011;7285;50.894;5.462;2023-07-22T10:06:06;0.40;;;0.40;;
14400;SDS011;7285;50.894;5.462;2023-07-22T10:08:35;0.63;;;0.63;;
14400;SDS011;7285;50.894;5.462;2023-07-22T10:11:04;0.40;;;0.40;;
14400;SDS011;7285;50.894;5.462;2023-07-22T10:13:36;0.40;;;0.40;;
14400;SDS011;7285;50.894;5.462;2023-07-22T10:16:05;0.50;;;0.50;;
14400;SDS011;7285;50.894;5.462;2023-07-22T10:18:32;0.40;;;0.40;;
14400;SDS011;7285;50.894;5.462;2023-07-22T10:21:00;1.47;;;0.43;;
14400;SDS011;7285;50.894;5.462;2023-07-22T10:23:27;0.50;;;0.50;;
14400;SDS011;7285;50.894;5.462;2023-07-22T10:25:57;0.47;;;0.40;;
14400;SDS011;7285;50.894;5.462;2023-07-22T10:28:25;0.40;;;0.40;;
14400;SDS011;7285;50.894;5.462;2023-07-22T10:30:53;0.30;;;0.30;;
14400;SDS011;7285;50.894;5.462;2023-07-22T10:33:22;0.53;;;0.53;;
14400;SDS011;7285;50.894;5.462;2023-07-22T10:36:01;0.50;;;0.50;;
14400;SDS011;7285;50.894;5.462;2023-07-22T10:38:30;0.30;;;0.30;;
14400;SDS011;7285;50.894;5.462;2023-07-22T10:40:57;1.50;;;1.23;;
14400;SDS011;7285;50.894;5.462;2023-07-22T10:43:26;0.30;;;0.30;;
14400;SDS011;7285;50.894;5.462;2023-07-22T10:45:57;0.40;;;0.40;;
14400;SDS011;7285;50.894;5.462;2023-07-22T10:48:25;2.10;;;0.40;;
14400;SDS011;7285;50.894;5.462;2023-07-22T10:50:54;0.40;;;0.40;;
14400;SDS011;7285;50.894;5.462;2023-07-22T10:53:28;0.90;;;0.47;;
14400;SDS011;7285;50.894;5.462;2023-07-22T10:56:03;0.40;;;0.40;;
14400;SDS011;7285;50.894;5.462;2023-07-22T10:58:32;0.30;;;0.30;;
14400;SDS011;7285;50.894;5.462;2023-07-22T11:04:02;0.52;;;0.40;;
14400;SDS011;7285;50.894;5.462;2023-07-22T11:06:51;0.63;;;0.63;;
14400;SDS011;7285;50.894;5.462;2023-07-22T11:09:35;0.52;;;0.30;;
14400;SDS011;7285;50.894;5.462;2023-07-22T11:12:04;0.50;;;0.32;;
14400;SDS011;7285;50.894;5.462;2023-07-22T11:14:34;0.35;;;0.35;;
14400;SDS011;7285;50.894;5.462;2023-07-22T11:17:05;0.68;;;0.68;;
14400;SDS011;7285;50.894;5.462;2023-07-22T11:19:33;0.90;;;0.43;;
14400;SDS011;7285;50.894;5.462;2023-07-22T11:22:01;0.40;;;0.40;;
14400;SDS011;7285;50.894;5.462;2023-07-22T11:24:28;0.40;;;0.40;;
14400;SDS011;7285;50.894;5.462;2023-07-22T11:26:56;0.50;;;0.40;;
14400;SDS011;7285;50.894;5.462;2023-07-22T11:29:22;0.30;;;0.30;;
14400;SDS011;7285;50.894;5.462;2023-07-22T11:31:50;1.00;;;0.95;;
14400;SDS011;7285;50.894;5.462;2023-07-22T11:34:19;0.40;;;0.40;;
14400;SDS011;7285;50.894;5.462;2023-07-22T11:36:47;0.60;;;0.50;;
14400;SDS011;7285;50.894;5.462;2023-07-22T11:39:15;0.28;;;0.28;;
14400;SDS011;7285;50.894;5.462;2023-07-22T11:41:43;0.70;;;0.70;;
14400;SDS011;7285;50.894;5.462;2023-07-22T11:44:12;0.70;;;0.70;;
14400;SDS011;7285;50.894;5.462;2023-07-22T11:46:46;0.32;;;0.32;;
14400;SDS011;7285;50.894;5.462;2023-07-22T11:49:23;0.40;;;0.40;;
14400;SDS011;7285;50.894;5.462;2023-07-22T11:51:50;0.65;;;0.50;;
14400;SDS011;7285;50.894;5.462;2023-07-22T11:54:20;0.45;;;0.45;;
14400;SDS011;7285;50.894;5.462;2023-07-22T11:56:47;0.40;;;0.40;;
14400;SDS011;7285;50.894;5.462;2023-07-22T11:59:14;0.20;;;0.20;;
14400;SDS011;7285;50.894;5.462;2023-07-22T12:01:43;0.28;;;0.28;;
14400;SDS011;7285;50.894;5.462;2023-07-22T12:04:11;0.70;;;0.32;;
14400;SDS011;7285;50.894;5.462;2023-07-22T12:06:41;1.80;;;0.32;;
14400;SDS011;7285;50.894;5.462;2023-07-22T12:09:09;0.40;;;0.40;;
14400;SDS011;7285;50.894;5.462;2023-07-22T12:11:36;0.20;;;0.20;;
14400;SDS011;7285;50.894;5.462;2023-07-22T12:14:07;0.30;;;0.30;;
14400;SDS011;7285;50.894;5.462;2023-07-22T12:16:35;0.22;;;0.22;;
14400;SDS011;7285;50.894;5.462;2023-07-22T12:19:03;0.30;;;0.30;;
14400;SDS011;7285;50.894;5.462;2023-07-22T12:21:30;0.75;;;0.38;;
14400;SDS011;7285;50.894;5.462;2023-07-22T12:23:59;0.22;;;0.22;;
14400;SDS011;7285;50.894;5.462;2023-07-22T12:26:29;0.28;;;0.25;;
14400;SDS011;7285;50.894;5.462;2023-07-22T12:28:56;0.40;;;0.40;;
14400;SDS011;7285;50.894;5.462;2023-07-22T12:31:24;0.17;;;0.17;;
14400;SDS011;7285;50.894;5.462;2023-07-22T12:33:52;0.17;;;0.17;;
14400;SDS011;7285;50.894;5.462;2023-07-22T12:36:19;0.30;;;0.30;;
14400;SDS011;7285;50.894;5.462;2023-07-22T12:38:46;0.75;;;0.30;;
14400;SDS011;7285;50.894;5.462;2023-07-22T12:41:15;0.85;;;0.30;;
14400;SDS011;7285;50.894;5.462;2023-07-22T12:43:42;0.40;;;0.40;;
14400;SDS011;7285;50.894;5.462;2023-07-22T12:46:09;0.40;;;0.40;;
14400;SDS011;7285;50.894;5.462;2023-07-22T12:48:36;0.15;;;0.15;;
14400;SDS011;7285;50.894;5.462;2023-07-22T12:51:03;0.22;;;0.22;;
14400;SDS011;7285;50.894;5.462;2023-07-22T12:53:30;0.30;;;0.30;;
14400;SDS011;7285;50.894;5.462;2023-07-22T12:55:57;0.20;;;0.20;;
14400;SDS011;7285;50.894;5.462;2023-07-22T12:58:25;0.43;;;0.30;;
14400;SDS011;7285;50.894;5.462;2023-07-22T13:00:52;0.40;;;0.30;;
14400;SDS011;7285;50.894;5.462;2023-07-22T13:03:19;0.52;;;0.50;;
14400;SDS011;7285;50.894;5.462;2023-07-22T13:05:46;0.28;;;0.28;;
14400;SDS011;7285;50.894;5.462;2023-07-22T13:08:13;0.20;;;0.20;;
14400;SDS011;7285;50.894;5.462;2023-07-22T13:10:40;0.30;;;0.30;;
14400;SDS011;7285;50.894;5.462;2023-07-22T13:13:09;0.32;;;0.32;;
14400;SDS011;7285;50.894;5.462;2023-07-22T13:15:38;0.47;;;0.38;;
14400;SDS011;7285;50.894;5.462;2023-07-22T13:18:05;0.40;;;0.30;;
14400;SDS011;7285;50.894;5.462;2023-07-22T13:20:32;0.40;;;0.40;;
14400;SDS011;7285;50.894;5.462;2023-07-22T13:22:59;0.10;;;0.10;;
14400;SDS011;7285;50.894;5.462;2023-07-22T13:25:26;0.22;;;0.22;;
14400;SDS011;7285;50.894;5.462;2023-07-22T13:27:55;0.13;;;0.13;;
14400;SDS011;7285;50.894;5.462;2023-07-22T13:30:22;0.35;;;0.30;;
14400;SDS011;7285;50.894;5.462;2023-07-22T13:32:50;0.35;;;0.32;;
14400;SDS011;7285;50.894;5.462;2023-07-22T13:35:18;0.77;;;0.68;;
14400;SDS011;7285;50.894;5.462;2023-07-22T13:37:45;0.40;;;0.40;;
14400;SDS011;7285;50.894;5.462;2023-07-22T13:40:12;0.30;;;0.20;;
14400;SDS011;7285;50.894;5.462;2023-07-22T13:42:39;0.43;;;0.43;;
14400;SDS011;7285;50.894;5.462;2023-07-22T13:45:06;0.47;;;0.47;;
14400;SDS011;7285;50.894;5.462;2023-07-22T13:47:34;0.30;;;0.30;;
14400;SDS011;7285;50.894;5.462;2023-07-22T13:50:02;1.02;;;0.40;;
14400;SDS011;7285;50.894;5.462;2023-07-22T13:52:29;0.40;;;0.40;;
14400;SDS011;7285;50.894;5.462;2023-07-22T13:54:56;0.55;;;0.55;;
14400;SDS011;7285;50.894;5.462;2023-07-22T13:57:23;0.20;;;0.20;;
14400;SDS011;7285;50.894;5.462;2023-07-22T13:59:50;0.45;;;0.45;;
14400;SDS011;7285;50.894;5.462;2023-07-22T14:02:17;0.20;;;0.20;;
14400;SDS011;7285;50.894;5.462;2023-07-22T14:04:44;0.43;;;0.43;;
14400;SDS011;7285;50.894;5.462;2023-07-22T14:07:12;0.20;;;0.20;;
14400;SDS011;7285;50.894;5.462;2023-07-22T14:09:39;0.20;;;0.20;;
14400;SDS011;7285;50.894;5.462;2023-07-22T14:12:06;0.55;;;0.50;;
14400;SDS011;7285;50.894;5.462;2023-07-22T14:14:34;0.85;;;0.77;;
14400;SDS011;7285;50.894;5.462;2023-07-22T14:17:01;0.40;;;0.40;;
14400;SDS011;7285;50.894;5.462;2023-07-22T14:19:29;0.22;;;0.22;;
14400;SDS011;7285;50.894;5.462;2023-07-22T14:21:56;0.30;;;0.30;;
14400;SDS011;7285;50.894;5.462;2023-07-22T14:24:24;1.17;;;0.40;;
14400;SDS011;7285;50.894;5.462;2023-07-22T14:26:51;0.38;;;0.38;;
14400;SDS011;7285;50.894;5.462;2023-07-22T14:29:18;0.65;;;0.65;;
14400;SDS011;7285;50.894;5.462;2023-07-22T14:31:45;0.60;;;0.40;;
14400;SDS011;7285;50.894;5.462;2023-07-22T14:34:12;1.00;;;0.40;;
14400;SDS011;7285;50.894;5.462;2023-07-22T14:36:40;0.28;;;0.20;;
14400;SDS011;7285;50.894;5.462;2023-07-22T14:39:07;0.47;;;0.40;;
14400;SDS011;7285;50.894;5.462;2023-07-22T14:41:35;0.40;;;0.40;;
14400;SDS011;7285;50.894;5.462;2023-07-22T14:44:02;0.65;;;0.40;;
14400;SDS011;7285;50.894;5.462;2023-07-22T14:46:29;0.30;;;0.30;;
14400;SDS011;7285;50.894;5.462;2023-07-22T14:48:56;0.55;;;0.32;;
14400;SDS011;7285;50.894;5.462;2023-07-22T14:51:23;0.47;;;0.47;;
14400;SDS011;7285;50.894;5.462;2023-07-22T14:53:50;0.40;;;0.40;;
14400;SDS011;7285;50.894;5.462;2023-07-22T14:56:17;0.30;;;0.30;;
14400;SDS011;7285;50.894;5.462;2023-07-22T14:58:45;1.33;;;0.52;;
14400;SDS011;7285;50.894;5.462;2023-07-22T15:01:14;0.40;;;0.40;;
14400;SDS011;7285;50.894;5.462;2023-07-22T15:03:41;0.40;;;0.30;;
14400;SDS011;7285;50.894;5.462;2023-07-22T15:06:08;0.22;;;0.22;;